LFGA METAR and TAF | Updated Today

LFGA METAR

Colmar-Houssen Airport

Observation time: 21 min. ago

LFGA 080530Z AUTO 00000KT 9999 FEW007 OVC130 03/03 Q1000

Need help? Read our tutorial on how to read METARs or read the parsed version below.

Colmar-Houssen Airport (LFGA) METAR

  • Weather conditions on Wed, 08 Dec 2021 05:30:00 +0000 (21 min. ago):
  • Present conditions: Dry
  • Clouds: A few at 213 meters; overcast sky at 3962 meters
  • Visibility: Greater than 10 km
  • Wind: Calm
  • Temperature: 3 celsius
  • Dew point: 3 celsius
  • Pressure: 1000 millibars
  • Remarks: None


Useful to know...

  • Codes: LFGA/CMR
  • Airport elevation: 628ft
  • Municipality: Colmar/Houssen
  • Country: France
  • Continent: Europe